sensor_id;sensor_type;location;lat;lon;timestamp;P1;durP1;ratioP1;P2;durP2;ratioP2
59978;SDS011;45839;44.882;20.650;2023-01-30T00:00:51;12.35;;;7.70;;
59978;SDS011;45839;44.882;20.650;2023-01-30T00:03:18;12.95;;;7.63;;
59978;SDS011;45839;44.882;20.650;2023-01-30T00:05:44;11.70;;;7.18;;
59978;SDS011;45839;44.882;20.650;2023-01-30T00:08:10;12.38;;;7.72;;
59978;SDS011;45839;44.882;20.650;2023-01-30T00:10:36;14.07;;;8.15;;
59978;SDS011;45839;44.882;20.650;2023-01-30T00:13:02;14.00;;;7.95;;
59978;SDS011;45839;44.882;20.650;2023-01-30T00:15:28;11.10;;;7.35;;
59978;SDS011;45839;44.882;20.650;2023-01-30T00:17:54;12.35;;;7.72;;
59978;SDS011;45839;44.882;20.650;2023-01-30T00:20:20;11.82;;;7.53;;
59978;SDS011;45839;44.882;20.650;2023-01-30T00:22:46;11.45;;;6.85;;
59978;SDS011;45839;44.882;20.650;2023-01-30T00:25:12;12.48;;;7.63;;
59978;SDS011;45839;44.882;20.650;2023-01-30T00:27:38;10.15;;;6.70;;
59978;SDS011;45839;44.882;20.650;2023-01-30T00:30:04;11.27;;;6.78;;
59978;SDS011;45839;44.882;20.650;2023-01-30T00:32:31;11.32;;;6.57;;
59978;SDS011;45839;44.882;20.650;2023-01-30T00:34:57;11.95;;;6.70;;
59978;SDS011;45839;44.882;20.650;2023-01-30T00:37:23;10.57;;;6.68;;
59978;SDS011;45839;44.882;20.650;2023-01-30T00:39:49;10.45;;;6.55;;
59978;SDS011;45839;44.882;20.650;2023-01-30T00:42:15;9.20;;;5.88;;
59978;SDS011;45839;44.882;20.650;2023-01-30T00:45:00;9.95;;;6.30;;
59978;SDS011;45839;44.882;20.650;2023-01-30T00:47:45;10.60;;;6.55;;
59978;SDS011;45839;44.882;20.650;2023-01-30T00:50:11;10.60;;;6.40;;
59978;SDS011;45839;44.882;20.650;2023-01-30T00:52:37;11.35;;;6.93;;
59978;SDS011;45839;44.882;20.650;2023-01-30T00:55:03;11.25;;;6.68;;
59978;SDS011;45839;44.882;20.650;2023-01-30T00:57:29;10.60;;;6.15;;
59978;SDS011;45839;44.882;20.650;2023-01-30T00:59:55;10.55;;;6.20;;
59978;SDS011;45839;44.882;20.650;2023-01-30T01:02:22;10.45;;;6.68;;
59978;SDS011;45839;44.882;20.650;2023-01-30T01:04:48;9.55;;;6.18;;
59978;SDS011;45839;44.882;20.650;2023-01-30T01:07:14;11.35;;;6.40;;
59978;SDS011;45839;44.882;20.650;2023-01-30T01:09:40;10.07;;;6.18;;
59978;SDS011;45839;44.882;20.650;2023-01-30T01:12:06;11.27;;;6.20;;
59978;SDS011;45839;44.882;20.650;2023-01-30T01:14:32;10.13;;;6.43;;
59978;SDS011;45839;44.882;20.650;2023-01-30T01:16:58;11.10;;;6.68;;
59978;SDS011;45839;44.882;20.650;2023-01-30T01:19:25;10.50;;;6.40;;
59978;SDS011;45839;44.882;20.650;2023-01-30T01:21:51;9.65;;;6.15;;
59978;SDS011;45839;44.882;20.650;2023-01-30T01:24:17;11.02;;;6.47;;
59978;SDS011;45839;44.882;20.650;2023-01-30T01:26:43;11.35;;;6.53;;
59978;SDS011;45839;44.882;20.650;2023-01-30T01:29:13;11.77;;;6.82;;
59978;SDS011;45839;44.882;20.650;2023-01-30T01:31:40;11.40;;;6.68;;
59978;SDS011;45839;44.882;20.650;2023-01-30T01:34:06;10.93;;;6.97;;
59978;SDS011;45839;44.882;20.650;2023-01-30T01:36:32;10.98;;;6.90;;
59978;SDS011;45839;44.882;20.650;2023-01-30T01:38:58;11.93;;;7.90;;
59978;SDS011;45839;44.882;20.650;2023-01-30T01:41:24;11.50;;;6.97;;
59978;SDS011;45839;44.882;20.650;2023-01-30T01:48:58;11.65;;;6.78;;
59978;SDS011;45839;44.882;20.650;2023-01-30T01:51:30;11.82;;;7.18;;
59978;SDS011;45839;44.882;20.650;2023-01-30T01:54:02;11.80;;;7.18;;
59978;SDS011;45839;44.882;20.650;2023-01-30T01:56:31;10.88;;;6.53;;
59978;SDS011;45839;44.882;20.650;2023-01-30T01:59:00;12.10;;;7.35;;
59978;SDS011;45839;44.882;20.650;2023-01-30T02:01:28;11.15;;;6.95;;
59978;SDS011;45839;44.882;20.650;2023-01-30T02:03:55;11.07;;;6.57;;
59978;SDS011;45839;44.882;20.650;2023-01-30T02:06:23;9.55;;;5.88;;
59978;SDS011;45839;44.882;20.650;2023-01-30T02:08:50;11.00;;;6.55;;
59978;SDS011;45839;44.882;20.650;2023-01-30T02:13:49;11.73;;;7.32;;
59978;SDS011;45839;44.882;20.650;2023-01-30T02:16:16;13.80;;;8.75;;
59978;SDS011;45839;44.882;20.650;2023-01-30T02:18:42;13.98;;;8.93;;
59978;SDS011;45839;44.882;20.650;2023-01-30T02:31:56;11.50;;;7.38;;
59978;SDS011;45839;44.882;20.650;2023-01-30T02:42:04;13.18;;;8.45;;
59978;SDS011;45839;44.882;20.650;2023-01-30T02:44:33;12.85;;;7.72;;
59978;SDS011;45839;44.882;20.650;2023-01-30T02:47:03;12.30;;;8.32;;
59978;SDS011;45839;44.882;20.650;2023-01-30T02:49:35;16.40;;;9.27;;
59978;SDS011;45839;44.882;20.650;2023-01-30T02:52:02;12.80;;;8.25;;
59978;SDS011;45839;44.882;20.650;2023-01-30T02:54:30;12.85;;;8.13;;
59978;SDS011;45839;44.882;20.650;2023-01-30T02:56:57;13.88;;;8.63;;
59978;SDS011;45839;44.882;20.650;2023-01-30T02:59:25;13.27;;;8.57;;
59978;SDS011;45839;44.882;20.650;2023-01-30T03:04:37;14.45;;;8.73;;
59978;SDS011;45839;44.882;20.650;2023-01-30T03:07:20;15.27;;;9.27;;
59978;SDS011;45839;44.882;20.650;2023-01-30T03:10:08;14.38;;;9.02;;
59978;SDS011;45839;44.882;20.650;2023-01-30T03:12:49;14.95;;;9.48;;
59978;SDS011;45839;44.882;20.650;2023-01-30T03:15:23;15.40;;;9.73;;
59978;SDS011;45839;44.882;20.650;2023-01-30T03:17:50;14.70;;;9.82;;
59978;SDS011;45839;44.882;20.650;2023-01-30T03:20:18;15.88;;;9.68;;
59978;SDS011;45839;44.882;20.650;2023-01-30T03:22:44;14.70;;;9.75;;
59978;SDS011;45839;44.882;20.650;2023-01-30T03:25:12;14.68;;;9.55;;
59978;SDS011;45839;44.882;20.650;2023-01-30T03:27:40;15.18;;;9.75;;
59978;SDS011;45839;44.882;20.650;2023-01-30T03:30:06;14.27;;;9.63;;
59978;SDS011;45839;44.882;20.650;2023-01-30T03:32:33;15.95;;;9.82;;
59978;SDS011;45839;44.882;20.650;2023-01-30T03:34:59;15.20;;;9.88;;
59978;SDS011;45839;44.882;20.650;2023-01-30T03:37:25;15.57;;;9.98;;
59978;SDS011;45839;44.882;20.650;2023-01-30T03:39:51;14.25;;;9.07;;
59978;SDS011;45839;44.882;20.650;2023-01-30T03:42:18;16.33;;;10.20;;
59978;SDS011;45839;44.882;20.650;2023-01-30T03:44:44;15.00;;;9.63;;
59978;SDS011;45839;44.882;20.650;2023-01-30T03:47:10;16.27;;;9.52;;
59978;SDS011;45839;44.882;20.650;2023-01-30T03:49:36;15.73;;;10.07;;
59978;SDS011;45839;44.882;20.650;2023-01-30T03:52:02;15.48;;;10.48;;
59978;SDS011;45839;44.882;20.650;2023-01-30T03:54:28;17.42;;;10.63;;
59978;SDS011;45839;44.882;20.650;2023-01-30T03:56:54;15.02;;;9.73;;
59978;SDS011;45839;44.882;20.650;2023-01-30T03:59:20;15.30;;;10.25;;
59978;SDS011;45839;44.882;20.650;2023-01-30T04:01:46;14.38;;;9.23;;
59978;SDS011;45839;44.882;20.650;2023-01-30T04:04:12;19.05;;;10.13;;
59978;SDS011;45839;44.882;20.650;2023-01-30T04:06:41;16.83;;;10.40;;
59978;SDS011;45839;44.882;20.650;2023-01-30T04:09:07;15.88;;;9.93;;
59978;SDS011;45839;44.882;20.650;2023-01-30T04:11:33;16.42;;;10.68;;
59978;SDS011;45839;44.882;20.650;2023-01-30T04:13:59;15.68;;;10.05;;
59978;SDS011;45839;44.882;20.650;2023-01-30T04:16:25;16.77;;;10.68;;
59978;SDS011;45839;44.882;20.650;2023-01-30T04:18:51;17.25;;;9.85;;
59978;SDS011;45839;44.882;20.650;2023-01-30T04:21:18;17.02;;;10.60;;
59978;SDS011;45839;44.882;20.650;2023-01-30T04:23:44;16.58;;;10.38;;
59978;SDS011;45839;44.882;20.650;2023-01-30T04:26:10;17.13;;;10.18;;
59978;SDS011;45839;44.882;20.650;2023-01-30T04:28:38;15.32;;;10.00;;
59978;SDS011;45839;44.882;20.650;2023-01-30T04:31:04;16.23;;;9.70;;
59978;SDS011;45839;44.882;20.650;2023-01-30T04:33:30;17.90;;;10.60;;
59978;SDS011;45839;44.882;20.650;2023-01-30T04:35:59;17.83;;;11.43;;
59978;SDS011;45839;44.882;20.650;2023-01-30T04:38:26;15.23;;;9.32;;
59978;SDS011;45839;44.882;20.650;2023-01-30T04:40:54;15.70;;;9.60;;
59978;SDS011;45839;44.882;20.650;2023-01-30T04:43:21;15.00;;;9.55;;
59978;SDS011;45839;44.882;20.650;2023-01-30T04:45:48;14.30;;;9.25;;
59978;SDS011;45839;44.882;20.650;2023-01-30T04:48:14;15.65;;;10.18;;
59978;SDS011;45839;44.882;20.650;2023-01-30T04:50:41;15.93;;;10.10;;
59978;SDS011;45839;44.882;20.650;2023-01-30T04:53:08;16.35;;;10.45;;
59978;SDS011;45839;44.882;20.650;2023-01-30T04:55:34;16.02;;;10.25;;
59978;SDS011;45839;44.882;20.650;2023-01-30T04:58:00;15.05;;;9.45;;
59978;SDS011;45839;44.882;20.650;2023-01-30T05:00:26;14.25;;;9.00;;
59978;SDS011;45839;44.882;20.650;2023-01-30T05:02:52;14.20;;;9.35;;
59978;SDS011;45839;44.882;20.650;2023-01-30T05:05:20;14.57;;;8.55;;
59978;SDS011;45839;44.882;20.650;2023-01-30T05:07:46;14.18;;;8.68;;
59978;SDS011;45839;44.882;20.650;2023-01-30T05:10:12;15.05;;;9.45;;
59978;SDS011;45839;44.882;20.650;2023-01-30T05:12:38;14.30;;;8.90;;
59978;SDS011;45839;44.882;20.650;2023-01-30T05:15:04;13.50;;;8.85;;
59978;SDS011;45839;44.882;20.650;2023-01-30T05:17:31;14.77;;;9.77;;
59978;SDS011;45839;44.882;20.650;2023-01-30T05:19:57;14.38;;;9.05;;
59978;SDS011;45839;44.882;20.650;2023-01-30T05:22:23;16.75;;;10.50;;
59978;SDS011;45839;44.882;20.650;2023-01-30T05:24:49;16.08;;;10.18;;
59978;SDS011;45839;44.882;20.650;2023-01-30T05:27:15;19.13;;;11.40;;
59978;SDS011;45839;44.882;20.650;2023-01-30T05:29:41;16.10;;;10.43;;
59978;SDS011;45839;44.882;20.650;2023-01-30T05:32:10;16.45;;;10.13;;
59978;SDS011;45839;44.882;20.650;2023-01-30T05:34:37;17.30;;;10.70;;
59978;SDS011;45839;44.882;20.650;2023-01-30T05:37:03;14.90;;;9.63;;
59978;SDS011;45839;44.882;20.650;2023-01-30T05:39:29;14.45;;;9.05;;
59978;SDS011;45839;44.882;20.650;2023-01-30T05:41:55;13.73;;;8.35;;
59978;SDS011;45839;44.882;20.650;2023-01-30T05:44:21;14.55;;;8.98;;
59978;SDS011;45839;44.882;20.650;2023-01-30T05:46:47;15.27;;;10.00;;
59978;SDS011;45839;44.882;20.650;2023-01-30T05:49:14;13.32;;;8.30;;
59978;SDS011;45839;44.882;20.650;2023-01-30T05:51:40;12.50;;;8.43;;
59978;SDS011;45839;44.882;20.650;2023-01-30T05:54:06;14.52;;;7.93;;
59978;SDS011;45839;44.882;20.650;2023-01-30T05:56:32;14.40;;;9.05;;
59978;SDS011;45839;44.882;20.650;2023-01-30T05:58:58;14.05;;;8.80;;
59978;SDS011;45839;44.882;20.650;2023-01-30T06:01:25;13.73;;;8.55;;
59978;SDS011;45839;44.882;20.650;2023-01-30T06:03:51;12.77;;;8.07;;
59978;SDS011;45839;44.882;20.650;2023-01-30T06:06:18;13.45;;;8.43;;
59978;SDS011;45839;44.882;20.650;2023-01-30T06:08:44;14.25;;;8.82;;
59978;SDS011;45839;44.882;20.650;2023-01-30T06:11:12;14.98;;;9.43;;
59978;SDS011;45839;44.882;20.650;2023-01-30T06:13:38;15.00;;;9.75;;
59978;SDS011;45839;44.882;20.650;2023-01-30T06:16:04;14.93;;;9.20;;
59978;SDS011;45839;44.882;20.650;2023-01-30T06:18:31;13.68;;;8.63;;
59978;SDS011;45839;44.882;20.650;2023-01-30T06:20:57;14.52;;;9.35;;
59978;SDS011;45839;44.882;20.650;2023-01-30T06:23:23;17.63;;;10.88;;
59978;SDS011;45839;44.882;20.650;2023-01-30T06:25:49;19.63;;;10.05;;
59978;SDS011;45839;44.882;20.650;2023-01-30T06:28:16;15.18;;;10.27;;
59978;SDS011;45839;44.882;20.650;2023-01-30T06:30:42;16.15;;;10.13;;
59978;SDS011;45839;44.882;20.650;2023-01-30T06:33:09;13.18;;;8.85;;
59978;SDS011;45839;44.882;20.650;2023-01-30T06:35:38;15.38;;;9.90;;
59978;SDS011;45839;44.882;20.650;2023-01-30T06:38:05;13.93;;;9.00;;
59978;SDS011;45839;44.882;20.650;2023-01-30T06:40:33;14.57;;;8.55;;
59978;SDS011;45839;44.882;20.650;2023-01-30T06:42:59;12.07;;;7.88;;
59978;SDS011;45839;44.882;20.650;2023-01-30T06:45:25;13.60;;;8.55;;
59978;SDS011;45839;44.882;20.650;2023-01-30T06:47:52;13.70;;;8.93;;
59978;SDS011;45839;44.882;20.650;2023-01-30T06:50:18;14.30;;;9.18;;
59978;SDS011;45839;44.882;20.650;2023-01-30T06:52:45;13.18;;;8.57;;
59978;SDS011;45839;44.882;20.650;2023-01-30T06:55:12;14.32;;;9.02;;
59978;SDS011;45839;44.882;20.650;2023-01-30T06:57:39;14.90;;;9.60;;
59978;SDS011;45839;44.882;20.650;2023-01-30T07:00:07;15.40;;;10.20;;
59978;SDS011;45839;44.882;20.650;2023-01-30T07:02:34;14.50;;;9.85;;
59978;SDS011;45839;44.882;20.650;2023-01-30T07:05:00;16.35;;;10.32;;
59978;SDS011;45839;44.882;20.650;2023-01-30T07:07:27;15.07;;;10.07;;
59978;SDS011;45839;44.882;20.650;2023-01-30T07:09:53;18.75;;;11.23;;
59978;SDS011;45839;44.882;20.650;2023-01-30T07:12:19;16.42;;;10.10;;
59978;SDS011;45839;44.882;20.650;2023-01-30T07:14:45;15.80;;;10.88;;
59978;SDS011;45839;44.882;20.650;2023-01-30T07:17:11;17.73;;;10.45;;
59978;SDS011;45839;44.882;20.650;2023-01-30T07:19:39;16.88;;;9.98;;
59978;SDS011;45839;44.882;20.650;2023-01-30T07:22:05;17.02;;;10.27;;
59978;SDS011;45839;44.882;20.650;2023-01-30T07:24:31;14.23;;;9.65;;
59978;SDS011;45839;44.882;20.650;2023-01-30T07:26:57;15.43;;;9.93;;
59978;SDS011;45839;44.882;20.650;2023-01-30T07:29:23;16.35;;;10.80;;
59978;SDS011;45839;44.882;20.650;2023-01-30T07:31:49;14.45;;;9.63;;
59978;SDS011;45839;44.882;20.650;2023-01-30T07:34:15;15.30;;;9.80;;
59978;SDS011;45839;44.882;20.650;2023-01-30T07:36:41;16.02;;;10.02;;
59978;SDS011;45839;44.882;20.650;2023-01-30T07:39:08;16.73;;;10.95;;
59978;SDS011;45839;44.882;20.650;2023-01-30T07:41:34;15.73;;;10.20;;
59978;SDS011;45839;44.882;20.650;2023-01-30T07:44:00;15.15;;;10.45;;
59978;SDS011;45839;44.882;20.650;2023-01-30T07:46:26;13.93;;;9.23;;
59978;SDS011;45839;44.882;20.650;2023-01-30T07:49:05;14.63;;;9.48;;
59978;SDS011;45839;44.882;20.650;2023-01-30T07:51:31;13.70;;;8.82;;
59978;SDS011;45839;44.882;20.650;2023-01-30T07:53:57;14.32;;;8.85;;
59978;SDS011;45839;44.882;20.650;2023-01-30T07:56:25;15.45;;;9.77;;
59978;SDS011;45839;44.882;20.650;2023-01-30T07:58:52;11.85;;;7.47;;
59978;SDS011;45839;44.882;20.650;2023-01-30T08:01:19;12.13;;;7.80;;
59978;SDS011;45839;44.882;20.650;2023-01-30T08:03:45;13.43;;;8.32;;
59978;SDS011;45839;44.882;20.650;2023-01-30T08:06:13;11.32;;;7.38;;
59978;SDS011;45839;44.882;20.650;2023-01-30T08:08:39;12.50;;;7.78;;
59978;SDS011;45839;44.882;20.650;2023-01-30T08:11:05;12.35;;;8.20;;
59978;SDS011;45839;44.882;20.650;2023-01-30T08:13:31;14.32;;;8.73;;
59978;SDS011;45839;44.882;20.650;2023-01-30T08:16:04;14.98;;;8.30;;
59978;SDS011;45839;44.882;20.650;2023-01-30T08:18:30;12.90;;;7.85;;
59978;SDS011;45839;44.882;20.650;2023-01-30T08:20:59;12.82;;;7.93;;
59978;SDS011;45839;44.882;20.650;2023-01-30T08:23:26;12.07;;;7.90;;
59978;SDS011;45839;44.882;20.650;2023-01-30T08:25:55;10.85;;;7.32;;
59978;SDS011;45839;44.882;20.650;2023-01-30T08:28:21;10.90;;;7.00;;
59978;SDS011;45839;44.882;20.650;2023-01-30T08:30:48;12.75;;;7.20;;
59978;SDS011;45839;44.882;20.650;2023-01-30T08:33:14;11.18;;;6.63;;
59978;SDS011;45839;44.882;20.650;2023-01-30T08:35:40;11.15;;;6.20;;
59978;SDS011;45839;44.882;20.650;2023-01-30T08:38:06;9.80;;;6.53;;
59978;SDS011;45839;44.882;20.650;2023-01-30T08:40:35;9.63;;;6.28;;
59978;SDS011;45839;44.882;20.650;2023-01-30T08:43:02;9.15;;;5.57;;
59978;SDS011;45839;44.882;20.650;2023-01-30T08:45:28;11.38;;;6.88;;
59978;SDS011;45839;44.882;20.650;2023-01-30T08:47:58;9.85;;;6.22;;
59978;SDS011;45839;44.882;20.650;2023-01-30T08:50:24;9.35;;;6.18;;
59978;SDS011;45839;44.882;20.650;2023-01-30T08:52:51;9.43;;;5.82;;
59978;SDS011;45839;44.882;20.650;2023-01-30T08:55:18;9.98;;;5.50;;
59978;SDS011;45839;44.882;20.650;2023-01-30T08:57:45;10.18;;;6.07;;
59978;SDS011;45839;44.882;20.650;2023-01-30T09:00:11;10.50;;;6.45;;
59978;SDS011;45839;44.882;20.650;2023-01-30T09:02:37;9.27;;;5.85;;
59978;SDS011;45839;44.882;20.650;2023-01-30T09:05:04;10.23;;;5.78;;
59978;SDS011;45839;44.882;20.650;2023-01-30T09:07:30;9.80;;;5.30;;
59978;SDS011;45839;44.882;20.650;2023-01-30T09:09:57;8.45;;;5.00;;
59978;SDS011;45839;44.882;20.650;2023-01-30T09:12:23;8.65;;;5.28;;
59978;SDS011;45839;44.882;20.650;2023-01-30T09:14:49;11.13;;;5.93;;
59978;SDS011;45839;44.882;20.650;2023-01-30T09:17:18;9.18;;;6.05;;
59978;SDS011;45839;44.882;20.650;2023-01-30T09:19:44;8.55;;;5.13;;
59978;SDS011;45839;44.882;20.650;2023-01-30T09:22:10;8.60;;;5.25;;
59978;SDS011;45839;44.882;20.650;2023-01-30T09:24:36;8.10;;;5.05;;
59978;SDS011;45839;44.882;20.650;2023-01-30T09:27:02;8.85;;;5.85;;
59978;SDS011;45839;44.882;20.650;2023-01-30T09:29:28;10.30;;;5.90;;
59978;SDS011;45839;44.882;20.650;2023-01-30T09:31:55;8.13;;;5.30;;
59978;SDS011;45839;44.882;20.650;2023-01-30T09:34:21;9.80;;;5.72;;
59978;SDS011;45839;44.882;20.650;2023-01-30T09:36:58;9.40;;;6.03;;
59978;SDS011;45839;44.882;20.650;2023-01-30T09:39:27;9.68;;;6.53;;
59978;SDS011;45839;44.882;20.650;2023-01-30T09:47:10;10.32;;;6.60;;
59978;SDS011;45839;44.882;20.650;2023-01-30T09:49:59;10.40;;;6.28;;
59978;SDS011;45839;44.882;20.650;2023-01-30T09:57:40;9.65;;;6.18;;
59978;SDS011;45839;44.882;20.650;2023-01-30T10:02:35;11.32;;;7.38;;
59978;SDS011;45839;44.882;20.650;2023-01-30T10:05:04;10.95;;;6.93;;
59978;SDS011;45839;44.882;20.650;2023-01-30T10:18:05;11.85;;;7.50;;
59978;SDS011;45839;44.882;20.650;2023-01-30T10:20:51;11.52;;;6.63;;
59978;SDS011;45839;44.882;20.650;2023-01-30T10:25:52;10.32;;;6.22;;
59978;SDS011;45839;44.882;20.650;2023-01-30T10:31:25;11.18;;;6.57;;
59978;SDS011;45839;44.882;20.650;2023-01-30T10:36:42;10.27;;;6.80;;
59978;SDS011;45839;44.882;20.650;2023-01-30T10:39:19;9.23;;;5.80;;
59978;SDS011;45839;44.882;20.650;2023-01-30T10:44:36;11.00;;;6.40;;
59978;SDS011;45839;44.882;20.650;2023-01-30T10:49:41;10.15;;;6.30;;
59978;SDS011;45839;44.882;20.650;2023-01-30T10:55:25;10.15;;;6.57;;
59978;SDS011;45839;44.882;20.650;2023-01-30T10:58:04;9.88;;;5.85;;
59978;SDS011;45839;44.882;20.650;2023-01-30T11:00:39;9.00;;;5.70;;
59978;SDS011;45839;44.882;20.650;2023-01-30T11:03:27;8.30;;;5.07;;
59978;SDS011;45839;44.882;20.650;2023-01-30T11:06:00;9.18;;;6.03;;
59978;SDS011;45839;44.882;20.650;2023-01-30T11:08:27;9.88;;;6.13;;
59978;SDS011;45839;44.882;20.650;2023-01-30T11:10:54;8.95;;;5.03;;
59978;SDS011;45839;44.882;20.650;2023-01-30T11:13:22;8.85;;;5.45;;
59978;SDS011;45839;44.882;20.650;2023-01-30T11:15:52;9.55;;;5.95;;
59978;SDS011;45839;44.882;20.650;2023-01-30T11:18:19;9.93;;;6.50;;
59978;SDS011;45839;44.882;20.650;2023-01-30T11:20:57;9.05;;;5.80;;
59978;SDS011;45839;44.882;20.650;2023-01-30T11:23:26;9.57;;;5.72;;
59978;SDS011;45839;44.882;20.650;2023-01-30T11:25:56;8.48;;;5.15;;
59978;SDS011;45839;44.882;20.650;2023-01-30T11:28:23;9.60;;;6.03;;
59978;SDS011;45839;44.882;20.650;2023-01-30T11:30:55;9.63;;;6.30;;
59978;SDS011;45839;44.882;20.650;2023-01-30T11:33:23;9.02;;;6.18;;
59978;SDS011;45839;44.882;20.650;2023-01-30T11:35:56;11.98;;;7.05;;
59978;SDS011;45839;44.882;20.650;2023-01-30T11:38:25;10.23;;;6.60;;
59978;SDS011;45839;44.882;20.650;2023-01-30T11:41:05;10.93;;;7.05;;
59978;SDS011;45839;44.882;20.650;2023-01-30T11:43:35;11.05;;;6.90;;
59978;SDS011;45839;44.882;20.650;2023-01-30T11:46:04;10.63;;;7.30;;
59978;SDS011;45839;44.882;20.650;2023-01-30T11:48:31;10.30;;;6.90;;
59978;SDS011;45839;44.882;20.650;2023-01-30T11:50:58;11.25;;;7.43;;
59978;SDS011;45839;44.882;20.650;2023-01-30T11:53:37;11.75;;;7.30;;
59978;SDS011;45839;44.882;20.650;2023-01-30T11:56:14;10.77;;;6.80;;
59978;SDS011;45839;44.882;20.650;2023-01-30T11:58:42;10.40;;;6.90;;
59978;SDS011;45839;44.882;20.650;2023-01-30T12:01:11;10.60;;;7.32;;
59978;SDS011;45839;44.882;20.650;2023-01-30T12:03:43;10.05;;;6.85;;
59978;SDS011;45839;44.882;20.650;2023-01-30T12:06:10;11.68;;;7.40;;
59978;SDS011;45839;44.882;20.650;2023-01-30T12:08:36;11.10;;;7.43;;
59978;SDS011;45839;44.882;20.650;2023-01-30T12:11:03;13.07;;;8.05;;
59978;SDS011;45839;44.882;20.650;2023-01-30T12:16:03;13.75;;;8.35;;
59978;SDS011;45839;44.882;20.650;2023-01-30T12:18:33;13.27;;;8.63;;
59978;SDS011;45839;44.882;20.650;2023-01-30T12:21:02;13.77;;;8.68;;
59978;SDS011;45839;44.882;20.650;2023-01-30T12:23:39;12.13;;;8.52;;
59978;SDS011;45839;44.882;20.650;2023-01-30T12:26:13;13.98;;;8.77;;
59978;SDS011;45839;44.882;20.650;2023-01-30T12:28:48;14.73;;;9.70;;
59978;SDS011;45839;44.882;20.650;2023-01-30T12:33:42;15.05;;;10.45;;
59978;SDS011;45839;44.882;20.650;2023-01-30T12:54:41;11.18;;;7.50;;
59978;SDS011;45839;44.882;20.650;2023-01-30T12:57:31;11.57;;;7.70;;
59978;SDS011;45839;44.882;20.650;2023-01-30T13:10:06;9.18;;;6.40;;
59978;SDS011;45839;44.882;20.650;2023-01-30T13:20:11;9.35;;;6.03;;
59978;SDS011;45839;44.882;20.650;2023-01-30T13:27:39;12.93;;;7.30;;
59978;SDS011;45839;44.882;20.650;2023-01-30T13:30:11;10.07;;;6.78;;
59978;SDS011;45839;44.882;20.650;2023-01-30T13:32:39;11.82;;;7.18;;
59978;SDS011;45839;44.882;20.650;2023-01-30T13:35:18;12.07;;;7.97;;
59978;SDS011;45839;44.882;20.650;2023-01-30T13:37:45;11.70;;;8.02;;
59978;SDS011;45839;44.882;20.650;2023-01-30T13:40:16;13.27;;;8.80;;
59978;SDS011;45839;44.882;20.650;2023-01-30T13:45:43;13.82;;;9.02;;
59978;SDS011;45839;44.882;20.650;2023-01-30T13:56:10;11.65;;;8.10;;
59978;SDS011;45839;44.882;20.650;2023-01-30T13:58:49;13.63;;;8.48;;
59978;SDS011;45839;44.882;20.650;2023-01-30T14:01:18;12.43;;;8.38;;
59978;SDS011;45839;44.882;20.650;2023-01-30T14:03:45;15.02;;;8.90;;
59978;SDS011;45839;44.882;20.650;2023-01-30T14:06:25;12.93;;;8.77;;
59978;SDS011;45839;44.882;20.650;2023-01-30T14:08:52;15.50;;;10.45;;
59978;SDS011;45839;44.882;20.650;2023-01-30T14:13:59;15.23;;;9.98;;
59978;SDS011;45839;44.882;20.650;2023-01-30T14:16:38;14.65;;;9.48;;
59978;SDS011;45839;44.882;20.650;2023-01-30T14:19:24;17.13;;;10.90;;
59978;SDS011;45839;44.882;20.650;2023-01-30T14:24:39;16.88;;;10.60;;
59978;SDS011;45839;44.882;20.650;2023-01-30T14:27:20;16.58;;;10.15;;
59978;SDS011;45839;44.882;20.650;2023-01-30T14:34:40;15.63;;;10.30;;
59978;SDS011;45839;44.882;20.650;2023-01-30T14:39:52;19.58;;;12.77;;
59978;SDS011;45839;44.882;20.650;2023-01-30T14:45:02;17.33;;;11.57;;
59978;SDS011;45839;44.882;20.650;2023-01-30T14:47:30;16.35;;;10.13;;
59978;SDS011;45839;44.882;20.650;2023-01-30T14:49:57;16.35;;;10.40;;
59978;SDS011;45839;44.882;20.650;2023-01-30T14:52:29;19.48;;;10.85;;
59978;SDS011;45839;44.882;20.650;2023-01-30T14:54:56;15.70;;;10.00;;
59978;SDS011;45839;44.882;20.650;2023-01-30T14:57:24;17.13;;;11.07;;
59978;SDS011;45839;44.882;20.650;2023-01-30T14:59:57;17.02;;;11.18;;
59978;SDS011;45839;44.882;20.650;2023-01-30T15:02:25;16.75;;;10.88;;
59978;SDS011;45839;44.882;20.650;2023-01-30T15:10:01;17.40;;;11.32;;
59978;SDS011;45839;44.882;20.650;2023-01-30T15:17:41;18.17;;;11.70;;
59978;SDS011;45839;44.882;20.650;2023-01-30T15:25:19;20.65;;;14.00;;
59978;SDS011;45839;44.882;20.650;2023-01-30T15:33:32;20.60;;;12.82;;
59978;SDS011;45839;44.882;20.650;2023-01-30T15:35:52;21.02;;;13.68;;
59978;SDS011;45839;44.882;20.650;2023-01-30T15:38:22;21.48;;;12.10;;
59978;SDS011;45839;44.882;20.650;2023-01-30T15:40:50;19.08;;;12.35;;
59978;SDS011;45839;44.882;20.650;2023-01-30T15:43:21;20.92;;;13.45;;
59978;SDS011;45839;44.882;20.650;2023-01-30T15:48:33;23.95;;;14.20;;
59978;SDS011;45839;44.882;20.650;2023-01-30T15:51:02;25.67;;;15.18;;
59978;SDS011;45839;44.882;20.650;2023-01-30T15:55:58;27.67;;;18.02;;
59978;SDS011;45839;44.882;20.650;2023-01-30T15:58:25;24.40;;;16.02;;
59978;SDS011;45839;44.882;20.650;2023-01-30T16:00:53;24.60;;;15.45;;
59978;SDS011;45839;44.882;20.650;2023-01-30T16:03:24;27.02;;;16.65;;
59978;SDS011;45839;44.882;20.650;2023-01-30T16:05:51;26.73;;;16.80;;
59978;SDS011;45839;44.882;20.650;2023-01-30T16:08:25;27.70;;;17.52;;
59978;SDS011;45839;44.882;20.650;2023-01-30T16:10:51;26.95;;;17.27;;
59978;SDS011;45839;44.882;20.650;2023-01-30T16:13:18;24.63;;;15.40;;
59978;SDS011;45839;44.882;20.650;2023-01-30T16:15:58;23.70;;;14.82;;
59978;SDS011;45839;44.882;20.650;2023-01-30T16:20:53;26.58;;;16.17;;
59978;SDS011;45839;44.882;20.650;2023-01-30T16:25:49;29.92;;;18.42;;
59978;SDS011;45839;44.882;20.650;2023-01-30T16:28:21;32.50;;;19.73;;
59978;SDS011;45839;44.882;20.650;2023-01-30T16:30:47;29.50;;;18.38;;
59978;SDS011;45839;44.882;20.650;2023-01-30T16:33:14;31.92;;;19.25;;
59978;SDS011;45839;44.882;20.650;2023-01-30T16:35:42;30.92;;;17.70;;
59978;SDS011;45839;44.882;20.650;2023-01-30T16:40:54;36.28;;;21.08;;
59978;SDS011;45839;44.882;20.650;2023-01-30T16:43:22;41.08;;;22.85;;
59978;SDS011;45839;44.882;20.650;2023-01-30T16:50:48;40.20;;;21.75;;
59978;SDS011;45839;44.882;20.650;2023-01-30T16:53:28;41.13;;;22.88;;
59978;SDS011;45839;44.882;20.650;2023-01-30T16:58:21;37.67;;;20.35;;
59978;SDS011;45839;44.882;20.650;2023-01-30T17:00:51;33.45;;;19.35;;
59978;SDS011;45839;44.882;20.650;2023-01-30T17:03:21;32.50;;;20.90;;
59978;SDS011;45839;44.882;20.650;2023-01-30T17:05:49;34.15;;;21.50;;
59978;SDS011;45839;44.882;20.650;2023-01-30T17:11:04;34.10;;;21.23;;
59978;SDS011;45839;44.882;20.650;2023-01-30T17:13:39;37.17;;;22.48;;
59978;SDS011;45839;44.882;20.650;2023-01-30T17:18:47;38.90;;;23.17;;
59978;SDS011;45839;44.882;20.650;2023-01-30T17:21:14;37.47;;;24.55;;
59978;SDS011;45839;44.882;20.650;2023-01-30T17:23:44;41.15;;;26.00;;
59978;SDS011;45839;44.882;20.650;2023-01-30T17:26:11;40.08;;;25.45;;
59978;SDS011;45839;44.882;20.650;2023-01-30T17:28:39;43.00;;;26.90;;
59978;SDS011;45839;44.882;20.650;2023-01-30T17:31:12;41.30;;;25.80;;
59978;SDS011;45839;44.882;20.650;2023-01-30T17:33:38;43.58;;;27.95;;